Terminal Aerodrome Forecast
Issued by NWS Wilmington, OH

Home | Current Version | Previous Version | Text Only | Print | Product List | Glossary On
Versions: 1 2 3 4 5 6 7 8 9 10 11 12 13 14 15 16 17 18 19 20 21 22 23 24 25 26 27 28 29 30 31
000
FTUS41 KILN 312059 AAA
TAFCVG
TAF AMD
KCVG 312059Z 3121/0124 34012KT P6SM VCTS SCT040CB BKN100
      TEMPO 3121/3122 5SM -TSRA BR OVC040CB
     FM010000 36007KT P6SM BKN120
     FM010600 01007KT P6SM SCT005
     FM011300 01010KT P6SM SKC
     FM011800 01010G18KT P6SM SCT050=

USA.gov is the U.S. government's official web portal to all federal, state and local government web resources and services.